ADDS METAR Data INFO
IDs: Format: Raw Decoded Include TAF

Data at: 0856 UTC 19 Jun 2018

KN03 190835Z AUTO 03005KT 10SM SCT017 BKN031 OVC060 17/16 A2987 RMK AO2
KN03 190815Z AUTO 01010G16KT 328V028 10SM -RA SCT010 BKN019 OVC060 17/17 A2986 RMK AO2
KN03 190755Z AUTO 36007KT 10SM SCT010 BKN016 OVC023 18/17 A2986 RMK AO2
KN03 190735Z AUTO 01004KT 10SM BKN012 OVC019 18/18 A2985 RMK AO2
KN03 190715Z AUTO 01004KT 10SM SCT009 BKN012 OVC021 19/18 A2984 RMK AO2
KN03 190655Z AUTO 33006KT 7SM RA BKN012 OVC022 20/19 A2983 RMK AO2
KN03 190635Z AUTO 32004KT 10SM SCT010 BKN021 OVC026 20/20 A2983 RMK AO2
KN03 190615Z AUTO 33003KT 10SM SCT014 BKN024 BKN029 20/20 A2983 RMK AO2
KN03 190555Z AUTO 32003KT 10SM SCT019 BKN027 BKN035 20/20 A2983 RMK AO2
KN03 190535Z AUTO 33008KT 10SM -RA SCT011 BKN019 OVC036 21/20 A2984 RMK AO2
KN03 190515Z AUTO 30004KT 7SM -RA SCT013 BKN018 OVC048 21/20 A2983 RMK AO2
KN03 190455Z AUTO 28006KT 10SM BKN013 BKN020 OVC028 21/21 A2983 RMK AO2
KN03 190435Z AUTO 28007G15KT 5SM -RA SCT014 BKN020 OVC028 21/21 A2983 RMK AO2
KN03 190415Z AUTO 27007KT 10SM BKN017 OVC024 22/21 A2982 RMK AO2
KN03 190355Z AUTO 28005KT 10SM BKN018 BKN022 OVC050 22/20 A2982 RMK AO2
KN03 190335Z AUTO 28005KT 10SM OVC020 22/21 A2982 RMK AO2
KN03 190315Z AUTO 30003KT 10SM BKN022 OVC029 23/21 A2982 RMK AO2
KN03 190255Z AUTO 00000KT 10SM BKN029 BKN045 OVC090 23/21 A2982 RMK AO2
KN03 190235Z AUTO 27004KT 10SM SCT044 SCT050 OVC090 23/21 A2983 RMK AO2
KN03 190215Z AUTO 26004KT 10SM SCT041 BKN049 OVC100 23/21 A2983 RMK AO2
KN03 190155Z AUTO 23004KT 10SM SCT050 SCT065 OVC090 23/21 A2982 RMK AO2
KN03 190135Z AUTO 22004KT 10SM SCT070 BKN080 23/22 A2982 RMK AO2
KN03 190115Z AUTO 00000KT 10SM CLR 23/22 A2981 RMK AO2
KN03 190055Z AUTO 25003KT 10SM SCT065 SCT120 23/22 A2982 RMK AO2
KN03 190035Z AUTO 27004KT 10SM CLR 23/22 A2982 RMK AO2
KN03 190015Z AUTO 00000KT 10SM -RA BKN100 23/22 A2983 RMK AO2
KN03 182355Z AUTO 23003KT 10SM BKN110 23/22 A2983 RMK AO2
KN03 182335Z AUTO 21003KT 10SM SCT120 23/23 A2983 RMK AO2
KN03 182315Z AUTO 00000KT 10SM CLR 23/22 A2982 RMK AO2
KN03 182255Z AUTO 24004KT 10SM CLR 23/22 A2982 RMK AO2
KN03 182235Z AUTO 23003KT 10SM SCT120 23/22 A2983 RMK AO2
KN03 182215Z AUTO 23006KT 10SM SCT010 SCT090 SCT120 24/22 A2984 RMK AO2
KN03 182155Z AUTO 20004KT 10SM SCT010 SCT029 SCT034 24/22 A2985 RMK AO2
KN03 182135Z AUTO 00000KT 10SM -RA CLR 23/22 A2986 RMK AO2
KN03 182115Z AUTO 00000KT 10SM -RA SCT019 SCT033 SCT043 23/22 A2987 RMK AO2
KN03 182055Z AUTO 34006KT 4SM +RA SCT009 SCT018 BKN042 23/22 A2987 RMK AO2
KN03 182035Z AUTO 28008KT 7SM +RA SCT030 SCT048 BKN050 25/20 A2988 RMK AO2
KN03 182015Z AUTO 33009G18KT 288V358 10SM SCT055 SCT070 BKN120 29/20 A2987 RMK AO2
KN03 181955Z AUTO 26007G14KT 10SM CLR 30/19 A2986 RMK AO2
KN03 181935Z AUTO 27009G15KT 228V288 10SM CLR 31/18 A2987 RMK AO2
KN03 181915Z AUTO 26009G19KT 10SM CLR 31/18 A2987 RMK AO2
KN03 181855Z AUTO 26012G20KT 10SM SCT065 31/18 A2988 RMK AO2
KN03 181835Z AUTO 26011G25KT 10SM SCT050 SCT075 SCT090 32/18 A2988 RMK AO2
KN03 181815Z AUTO 25013G21KT 10SM SCT055 SCT065 BKN090 32/19 A2989 RMK AO2
KN03 181755Z AUTO 28015G20KT 10SM SCT049 SCT055 SCT075 31/19 A2989 RMK AO2
KN03 181735Z AUTO 24007G15KT 10SM SCT049 BKN060 BKN080 30/20 A2990 RMK AO2
KN03 181715Z AUTO 23013G19KT 10SM SCT042 BKN049 BKN080 31/20 A2991 RMK AO2
KN03 181655Z AUTO 25010G15KT 10SM SCT040 SCT046 SCT080 31/21 A2992 RMK AO2
KN03 181635Z AUTO 25009G17KT 10SM SCT040 SCT048 31/21 A2993 RMK AO2
KN03 181615Z AUTO 25007G16KT 10SM SCT044 SCT050 30/21 A2994 RMK AO2
KN03 181555Z AUTO 26006G18KT 10SM SCT040 30/21 A2995 RMK AO2
KN03 181535Z AUTO 26007KT 228V288 10SM SCT042 30/21 A2996 RMK AO2
KN03 181515Z AUTO 25008KT 10SM CLR 29/21 A2996 RMK AO2
KN03 181455Z AUTO 21007KT 10SM CLR 29/21 A2995 RMK AO2
KN03 181435Z AUTO 23005KT 10SM CLR 28/21 A2995 RMK AO2
KN03 181415Z AUTO 25007KT 10SM CLR 27/21 A2996 RMK AO2
KN03 181355Z AUTO 22008KT 10SM CLR 27/21 A2996 RMK AO2
KN03 181335Z AUTO 22008KT 10SM CLR 27/21 A2997 RMK AO2
KN03 181315Z AUTO 23007KT 10SM CLR 27/21 A2997 RMK AO2
KN03 181255Z AUTO 22008KT 10SM CLR 26/21 A2998 RMK AO2
KN03 181235Z AUTO 22007KT 10SM CLR 25/20 A2999 RMK AO2
KN03 181215Z AUTO 00000KT 10SM CLR 22/20 A2999 RMK AO2
KN03 181155Z AUTO 00000KT 10SM CLR 21/19 A3000 RMK AO2
KN03 181135Z AUTO 00000KT 10SM CLR 20/18 A3000 RMK AO2
KN03 181115Z AUTO 00000KT 10SM SCT055 20/18 A3000 RMK AO2
KN03 181055Z AUTO 00000KT 10SM SCT055 19/18 A3000 RMK AO2
KN03 181035Z AUTO 00000KT 10SM CLR 18/18 A3000 RMK AO2
KN03 181015Z AUTO 00000KT 10SM CLR 17/17 A3000 RMK AO2
KN03 180955Z AUTO 00000KT 7SM CLR 17/17 A3000 RMK AO2
KN03 180935Z AUTO 00000KT 10SM SCT065 SCT075 17/17 A3001 RMK AO2
KN03 180915Z AUTO 00000KT 10SM SCT065 SCT075 17/17 A3001 RMK AO2
KN03 180855Z AUTO 00000KT 7SM CLR 17/17 A3001 RMK AO2
KN03 180835Z AUTO 00000KT 7SM CLR 17/17 A3002 RMK AO2
KN03 180815Z AUTO 00000KT 10SM CLR 17/17 A3002 RMK AO2
KN03 180735Z AUTO 00000KT 10SM CLR 18/17 A3003 RMK AO2
KN03 180715Z AUTO 00000KT 10SM CLR 18/17 A3004 RMK AO2
KN03 180655Z AUTO 00000KT 10SM CLR 18/18 A3004 RMK AO2
KN03 180635Z AUTO 00000KT 10SM CLR 18/17 A3003 RMK AO2
KN03 180615Z AUTO 00000KT 10SM CLR 18/17 A3004 RMK AO2
KN03 180555Z AUTO 00000KT 10SM CLR 19/17 A3004 RMK AO2
KN03 180535Z AUTO 00000KT 10SM CLR 18/17 A3005 RMK AO2
KN03 180455Z AUTO 00000KT 10SM CLR 19/17 A3005 RMK AO2
KN03 180435Z AUTO 00000KT 10SM CLR 20/17 A3005 RMK AO2
KN03 180415Z AUTO 00000KT 10SM CLR 19/17 A3005 RMK AO2
KN03 180355Z AUTO 00000KT 10SM CLR 20/17 A3005 RMK AO2
KN03 180335Z AUTO 00000KT 10SM CLR 19/17 A3004 RMK AO2
KN03 180315Z AUTO 00000KT 10SM CLR 20/17 A3004 RMK AO2
KN03 180255Z AUTO 00000KT 10SM CLR 20/17 A3004 RMK AO2
KN03 180235Z AUTO 00000KT 10SM CLR 20/17 A3004 RMK AO2
KN03 180215Z AUTO 00000KT 10SM CLR 21/17 A3004 RMK AO2
KN03 180155Z AUTO 00000KT 10SM CLR 21/17 A3004 RMK AO2
KN03 180135Z AUTO 00000KT 10SM CLR 21/17 A3004 RMK AO2
KN03 180115Z AUTO 00000KT 10SM CLR 22/17 A3004 RMK AO2
KN03 180055Z AUTO 00000KT 10SM CLR 22/17 A3003 RMK AO2
KN03 180035Z AUTO 00000KT 10SM CLR 23/18 A3003 RMK AO2
KN03 180015Z AUTO 00000KT 10SM CLR 24/18 A3004 RMK AO2
KN03 172355Z AUTO 00000KT 10SM CLR 26/18 A3003 RMK AO2
KN03 172335Z AUTO 00000KT 10SM CLR 27/17 A3004 RMK AO2
KN03 172315Z AUTO 19004KT 10SM CLR 28/16 A3004 RMK AO2
KN03 172255Z AUTO 20005KT 10SM CLR 28/16 A3005 RMK AO2
KN03 172235Z AUTO 22004KT 10SM CLR 29/16 A3006 RMK AO2
KN03 172215Z AUTO 21004KT 10SM CLR 29/15 A3006 RMK AO2
KN03 172155Z AUTO 20006KT 10SM CLR 29/15 A3006 RMK AO2
KN03 172135Z AUTO 23004KT 10SM CLR 29/15 A3006 RMK AO2
KN03 172115Z AUTO 27005KT 10SM CLR 29/16 A3007 RMK AO2